METAR Formatted Surface Weather Observation
Issued by NWS

Home | Current Version | Previous Version | Text Only | Print | Product List | Glossary On
Versions: 1 2 3 4 5
000
SAUS46 KSEW 280258
MTRSMP
METAR KSMP 280256Z AUTO VRB05KT 10SM CLR 18/10 A3015 RMK AO2 SLP184
T01780100 58002 $



USA.gov is the U.S. government's official web portal to all federal, state and local government web resources and services.